Time;durP1;ratioP1;P1;durP2;ratioP2;P2;SDS_P1;SDS_P2;PMS_P1;PMS_P2;Temp;Humidity;BMP_temperature;BMP_pressure;BME280_temperature;BME280_humidity;BME280_pressure;Samples;Min_cycle;Max_cycle;Signal;HPM_P1;HPM_P2
2022/10/01 00:00:27;;;;;;;2.40;1.17;;;;;;;;;;5118606;28;20478;-76
2022/10/01 00:02:53;;;;;;;1.83;1.10;;;;;;;;;;5118523;28;20046;-76
2022/10/01 00:05:20;;;;;;;3.03;0.90;;;;;;;;;;5118194;28;20044;-76
2022/10/01 00:07:47;;;;;;;1.85;1.30;;;;;;;;;;5118324;28;20031;-76
2022/10/01 00:10:15;;;;;;;1.00;0.80;;;;;;;;;;5118119;28;20540;-76
2022/10/01 00:12:44;;;;;;;3.75;1.33;;;;;;;;;;5117402;28;20039;-76
2022/10/01 00:15:11;;;;;;;2.22;1.00;;;;;;;;;;5118547;28;20031;-76
2022/10/01 00:17:38;;;;;;;4.00;1.17;;;;;;;;;;5117668;28;20032;-76
2022/10/01 00:20:05;;;;;;;2.03;1.48;;;;;;;;;;5116975;28;20122;-76
2022/10/01 00:22:32;;;;;;;4.05;1.00;;;;;;;;;;5115393;28;20042;-76
2022/10/01 00:24:58;;;;;;;1.88;1.30;;;;;;;;;;5116057;28;20040;-76
2022/10/01 00:27:25;;;;;;;3.55;1.48;;;;;;;;;;5116705;28;20079;-76
2022/10/01 00:29:51;;;;;;;3.35;1.00;;;;;;;;;;5116831;28;20069;-76
2022/10/01 00:32:17;;;;;;;3.30;1.15;;;;;;;;;;5117071;28;20043;-76
2022/10/01 00:34:44;;;;;;;1.65;1.17;;;;;;;;;;5117255;28;20092;-76
2022/10/01 00:37:10;;;;;;;2.20;1.10;;;;;;;;;;5117265;28;20074;-76
2022/10/01 00:39:36;;;;;;;4.32;1.48;;;;;;;;;;5116544;28;20073;-76
2022/10/01 00:42:05;;;;;;;3.17;1.20;;;;;;;;;;5117385;28;20036;-76
2022/10/01 00:44:36;;;;;;;2.50;1.35;;;;;;;;;;5116962;28;20042;-76
2022/10/01 00:47:20;;;;;;;3.80;1.63;;;;;;;;;;5116484;28;20043;-76
2022/10/01 00:49:47;;;;;;;6.18;2.10;;;;;;;;;;5116961;28;20486;-76
2022/10/01 00:52:15;;;;;;;3.95;1.52;;;;;;;;;;5117330;28;20386;-76
2022/10/01 00:54:43;;;;;;;5.68;1.63;;;;;;;;;;5116366;28;20043;-76
2022/10/01 00:57:10;;;;;;;2.92;1.20;;;;;;;;;;5117180;28;20032;-76
2022/10/01 00:59:36;;;;;;;3.08;1.80;;;;;;;;;;5116777;28;20047;-76
2022/10/01 01:02:02;;;;;;;3.65;1.40;;;;;;;;;;5117419;28;20039;-76
2022/10/01 01:04:28;;;;;;;4.38;1.77;;;;;;;;;;5116771;28;20038;-77
2022/10/01 01:06:57;;;;;;;3.88;1.90;;;;;;;;;;5116350;28;20068;-76
2022/10/01 01:09:26;;;;;;;1.90;1.48;;;;;;;;;;5114773;28;20043;-76
2022/10/01 01:12:03;;;;;;;2.72;1.50;;;;;;;;;;5115088;28;20602;-76
2022/10/01 01:14:54;;;;;;;2.63;1.40;;;;;;;;;;5114856;28;20040;-76
2022/10/01 01:17:41;;;;;;;4.90;1.45;;;;;;;;;;5115405;28;20032;-76
2022/10/01 01:20:26;;;;;;;2.83;1.67;;;;;;;;;;5115831;28;20042;-76
2022/10/01 01:23:25;;;;;;;4.82;1.75;;;;;;;;;;5116970;28;20044;-76
2022/10/01 01:25:59;;;;;;;1.92;1.50;;;;;;;;;;5072125;28;20046;-76
2022/10/01 01:28:43;;;;;;;2.35;1.58;;;;;;;;;;5116059;28;20086;-76
2022/10/01 01:31:18;;;;;;;2.40;1.80;;;;;;;;;;5116217;28;20039;-76
2022/10/01 01:33:48;;;;;;;4.85;1.70;;;;;;;;;;5115641;28;20044;-76
2022/10/01 01:36:19;;;;;;;5.82;2.08;;;;;;;;;;5115918;28;20043;-76
2022/10/01 01:38:50;;;;;;;3.15;1.95;;;;;;;;;;5115803;28;20052;-76
2022/10/01 01:41:19;;;;;;;2.80;1.45;;;;;;;;;;5116153;28;20040;-76
2022/10/01 01:43:47;;;;;;;2.47;1.55;;;;;;;;;;5116146;28;20517;-76
2022/10/01 01:46:16;;;;;;;2.80;1.40;;;;;;;;;;5116222;28;20035;-76
2022/10/01 01:48:48;;;;;;;4.45;1.77;;;;;;;;;;5107018;28;20048;-76
2022/10/01 01:51:20;;;;;;;3.00;1.67;;;;;;;;;;5096115;28;20040;-76
2022/10/01 01:53:46;;;;;;;2.20;1.40;;;;;;;;;;5095781;28;20123;-76
2022/10/01 01:56:12;;;;;;;3.80;1.40;;;;;;;;;;5094211;28;20463;-76
2022/10/01 01:58:38;;;;;;;3.22;2.03;;;;;;;;;;5095096;28;20194;-76
2022/10/01 02:01:05;;;;;;;6.18;2.28;;;;;;;;;;5095467;28;20044;-76
2022/10/01 02:03:33;;;;;;;3.15;1.73;;;;;;;;;;5095802;28;20062;-76
2022/10/01 02:06:15;;;;;;;3.08;1.88;;;;;;;;;;5094438;28;20093;-76
2022/10/01 02:08:57;;;;;;;3.00;1.70;;;;;;;;;;5095595;28;20106;-76
2022/10/01 02:11:27;;;;;;;2.67;1.55;;;;;;;;;;5095041;28;20532;-76
2022/10/01 02:14:16;;;;;;;3.10;1.60;;;;;;;;;;5094975;28;20118;-76
2022/10/01 02:16:51;;;;;;;2.25;1.60;;;;;;;;;;5095288;28;20123;-76
2022/10/01 02:19:17;;;;;;;2.20;1.52;;;;;;;;;;5095013;28;20094;-76
2022/10/01 02:21:54;;;;;;;3.25;1.65;;;;;;;;;;5094933;28;20471;-76
2022/10/01 02:24:21;;;;;;;3.50;1.65;;;;;;;;;;5094838;28;20078;-76
2022/10/01 02:26:49;;;;;;;1.85;1.60;;;;;;;;;;5094624;28;20143;-77
2022/10/01 02:29:17;;;;;;;1.85;1.58;;;;;;;;;;5094344;28;20043;-76
2022/10/01 02:31:44;;;;;;;1.70;1.60;;;;;;;;;;5094849;28;20488;-77
2022/10/01 02:34:10;;;;;;;4.47;1.63;;;;;;;;;;5094212;28;20124;-77
2022/10/01 02:36:40;;;;;;;3.05;1.58;;;;;;;;;;5094816;28;20059;-77
2022/10/01 02:39:07;;;;;;;3.53;1.65;;;;;;;;;;5095250;28;20047;-77
2022/10/01 02:41:36;;;;;;;6.10;1.73;;;;;;;;;;5094668;28;20098;-77
2022/10/01 02:44:13;;;;;;;2.67;1.67;;;;;;;;;;5094660;28;20521;-77
2022/10/01 02:46:41;;;;;;;3.53;1.50;;;;;;;;;;5094406;28;20047;-77
2022/10/01 02:49:07;;;;;;;3.35;1.60;;;;;;;;;;5094548;28;20093;-76
2022/10/01 02:51:52;;;;;;;4.43;1.52;;;;;;;;;;5095142;28;20043;-77
2022/10/01 02:54:34;;;;;;;1.73;1.38;;;;;;;;;;5094750;28;20036;-77
2022/10/01 02:59:45;;;;;;;2.22;1.30;;;;;;;;;;5094024;28;20039;-77
2022/10/01 03:02:12;;;;;;;2.50;1.38;;;;;;;;;;5094868;28;20048;-76
2022/10/01 03:04:38;;;;;;;2.55;1.30;;;;;;;;;;5094553;28;20552;-77
2022/10/01 03:07:04;;;;;;;1.92;1.15;;;;;;;;;;5094192;28;20063;-77
2022/10/01 03:09:31;;;;;;;3.80;1.27;;;;;;;;;;5094441;28;20059;-77
2022/10/01 03:11:58;;;;;;;3.60;1.60;;;;;;;;;;5094417;28;20560;-76
2022/10/01 03:14:24;;;;;;;2.40;1.10;;;;;;;;;;5094313;28;20039;-77
2022/10/01 03:16:53;;;;;;;1.45;1.10;;;;;;;;;;5094975;28;20036;-77
2022/10/01 03:19:20;;;;;;;1.88;1.25;;;;;;;;;;5098063;28;20090;-77
2022/10/01 03:21:46;;;;;;;2.65;1.05;;;;;;;;;;5098654;28;20047;-77
2022/10/01 03:24:12;;;;;;;3.70;1.15;;;;;;;;;;5098474;28;20044;-77
2022/10/01 03:26:38;;;;;;;2.95;1.20;;;;;;;;;;5097932;28;20162;-77
2022/10/01 03:29:05;;;;;;;5.10;1.92;;;;;;;;;;5097664;28;20529;-76
2022/10/01 03:31:31;;;;;;;1.67;1.20;;;;;;;;;;5098685;28;20035;-76
2022/10/01 03:33:59;;;;;;;3.80;1.35;;;;;;;;;;5098459;28;20089;-77
2022/10/01 03:36:28;;;;;;;2.97;1.20;;;;;;;;;;5098083;28;20044;-76
2022/10/01 03:38:54;;;;;;;2.42;1.05;;;;;;;;;;5098042;28;20046;-77
2022/10/01 03:41:20;;;;;;;2.35;1.25;;;;;;;;;;5097673;28;20048;-76
2022/10/01 03:43:46;;;;;;;1.30;1.00;;;;;;;;;;5097667;28;20055;-77
2022/10/01 03:46:12;;;;;;;4.25;1.17;;;;;;;;;;5097892;28;20032;-77
2022/10/01 03:48:38;;;;;;;2.55;0.93;;;;;;;;;;5096639;28;20452;-77
2022/10/01 03:51:05;;;;;;;1.67;1.10;;;;;;;;;;5097858;28;20036;-76
2022/10/01 03:53:31;;;;;;;3.28;1.08;;;;;;;;;;5098184;28;20054;-76
2022/10/01 03:55:58;;;;;;;2.22;1.20;;;;;;;;;;5097996;28;20036;-77
2022/10/01 03:58:24;;;;;;;0.93;0.82;;;;;;;;;;5097232;28;20040;-77
2022/10/01 04:00:50;;;;;;;3.55;1.08;;;;;;;;;;5097340;28;20044;-76
2022/10/01 04:03:17;;;;;;;1.92;0.80;;;;;;;;;;5097627;28;20063;-76
2022/10/01 04:05:44;;;;;;;1.25;1.00;;;;;;;;;;5097541;28;20138;-77
2022/10/01 04:08:10;;;;;;;1.67;0.85;;;;;;;;;;5097136;28;20418;-77
2022/10/01 04:10:36;;;;;;;2.38;0.93;;;;;;;;;;5097416;28;20036;-77
2022/10/01 04:13:03;;;;;;;2.78;0.90;;;;;;;;;;5097433;28;20043;-77
2022/10/01 04:15:29;;;;;;;3.22;1.20;;;;;;;;;;5097425;28;20067;-77
2022/10/01 04:17:56;;;;;;;2.47;1.23;;;;;;;;;;5097415;28;20036;-77
2022/10/01 04:20:23;;;;;;;3.90;1.00;;;;;;;;;;5097602;28;20063;-77
2022/10/01 04:22:49;;;;;;;1.77;0.80;;;;;;;;;;5097236;28;20144;-77
2022/10/01 04:25:15;;;;;;;1.13;0.88;;;;;;;;;;5097202;28;20091;-76
2022/10/01 04:27:42;;;;;;;2.70;1.00;;;;;;;;;;5096557;28;20087;-76
2022/10/01 04:30:09;;;;;;;1.35;1.00;;;;;;;;;;5094684;28;20044;-77
2022/10/01 04:32:35;;;;;;;1.92;0.90;;;;;;;;;;5097636;28;20044;-76
2022/10/01 04:35:03;;;;;;;1.38;0.93;;;;;;;;;;5096245;28;20036;-76
2022/10/01 04:37:30;;;;;;;3.60;1.15;;;;;;;;;;5096914;28;20036;-76
2022/10/01 04:39:56;;;;;;;2.42;0.90;;;;;;;;;;5096651;28;20100;-77
2022/10/01 04:42:22;;;;;;;1.55;0.95;;;;;;;;;;5096702;28;20043;-77
2022/10/01 04:44:48;;;;;;;1.38;0.70;;;;;;;;;;5096782;28;20057;-76
2022/10/01 04:47:14;;;;;;;2.30;0.70;;;;;;;;;;5096517;28;20118;-77
2022/10/01 04:49:40;;;;;;;1.58;0.68;;;;;;;;;;5096621;28;20047;-77
2022/10/01 04:52:06;;;;;;;3.53;0.80;;;;;;;;;;5097289;28;20044;-77
2022/10/01 04:54:33;;;;;;;0.93;0.75;;;;;;;;;;5096610;28;20043;-77
2022/10/01 04:56:59;;;;;;;1.98;0.75;;;;;;;;;;5096269;28;20093;-77
2022/10/01 04:59:25;;;;;;;2.08;0.70;;;;;;;;;;5096359;28;20506;-77
2022/10/01 05:01:51;;;;;;;1.52;0.82;;;;;;;;;;5096728;28;20043;-76
2022/10/01 05:04:17;;;;;;;1.27;0.73;;;;;;;;;;5095363;28;20051;-77
2022/10/01 05:06:44;;;;;;;4.05;0.90;;;;;;;;;;5096607;28;20036;-77
2022/10/01 05:09:10;;;;;;;1.50;0.98;;;;;;;;;;5096188;28;20483;-76
2022/10/01 05:11:37;;;;;;;1.10;0.80;;;;;;;;;;5096301;28;20078;-76
2022/10/01 05:14:04;;;;;;;3.25;0.70;;;;;;;;;;5095781;28;20040;-77
2022/10/01 05:16:30;;;;;;;1.25;0.80;;;;;;;;;;5096140;28;20391;-77
2022/10/01 05:18:57;;;;;;;2.15;0.93;;;;;;;;;;5095975;28;20098;-76
2022/10/01 05:21:24;;;;;;;0.90;0.68;;;;;;;;;;5096090;28;20051;-76
2022/10/01 05:23:51;;;;;;;2.95;1.15;;;;;;;;;;5096359;28;20067;-76
2022/10/01 05:26:17;;;;;;;1.00;0.77;;;;;;;;;;5095402;28;20129;-77
2022/10/01 05:28:44;;;;;;;1.30;0.70;;;;;;;;;;5095986;28;20055;-77
2022/10/01 05:31:10;;;;;;;2.42;0.60;;;;;;;;;;5095889;28;20109;-77
2022/10/01 05:33:36;;;;;;;0.80;0.55;;;;;;;;;;5095673;28;20044;-77
2022/10/01 05:36:05;;;;;;;3.92;0.75;;;;;;;;;;5095525;28;20039;-77
2022/10/01 05:38:36;;;;;;;1.15;0.70;;;;;;;;;;5095495;28;20063;-77
2022/10/01 05:41:03;;;;;;;3.28;0.88;;;;;;;;;;5095699;28;20051;-77
2022/10/01 05:43:30;;;;;;;3.88;0.70;;;;;;;;;;5095714;28;20494;-76
2022/10/01 05:45:59;;;;;;;3.85;0.80;;;;;;;;;;5095272;28;20119;-77
2022/10/01 05:48:25;;;;;;;3.72;0.88;;;;;;;;;;5095866;28;20048;-76
2022/10/01 05:50:53;;;;;;;2.88;0.80;;;;;;;;;;5096109;28;20475;-77
2022/10/01 05:53:20;;;;;;;2.47;0.65;;;;;;;;;;5095714;28;20036;-77
2022/10/01 05:55:46;;;;;;;2.88;1.00;;;;;;;;;;5095427;28;20044;-77
2022/10/01 05:58:13;;;;;;;3.70;0.77;;;;;;;;;;5095254;28;20044;-76
2022/10/01 06:00:40;;;;;;;2.95;0.80;;;;;;;;;;5095121;28;20120;-77
2022/10/01 06:03:06;;;;;;;1.90;0.73;;;;;;;;;;5095298;28;20580;-77
2022/10/01 06:05:33;;;;;;;3.30;0.75;;;;;;;;;;5095290;28;20069;-77
2022/10/01 06:07:59;;;;;;;3.20;0.65;;;;;;;;;;5094829;28;20417;-77
2022/10/01 06:10:28;;;;;;;1.02;0.88;;;;;;;;;;5094926;28;20044;-77
2022/10/01 06:12:58;;;;;;;2.03;0.73;;;;;;;;;;5095041;28;20043;-76
2022/10/01 06:15:24;;;;;;;1.20;1.10;;;;;;;;;;5094803;28;20053;-76
2022/10/01 06:17:50;;;;;;;2.03;0.63;;;;;;;;;;5095073;28;20036;-77
2022/10/01 06:20:18;;;;;;;0.98;0.82;;;;;;;;;;5095574;28;20083;-76
2022/10/01 06:22:44;;;;;;;3.92;0.80;;;;;;;;;;5094733;28;20036;-77
2022/10/01 06:25:11;;;;;;;2.17;0.98;;;;;;;;;;5094974;28;20036;-77
2022/10/01 06:27:38;;;;;;;2.33;0.70;;;;;;;;;;5095113;28;20048;-76
2022/10/01 06:30:04;;;;;;;2.72;0.90;;;;;;;;;;5095141;28;20537;-77
2022/10/01 06:32:31;;;;;;;2.65;0.82;;;;;;;;;;5095791;28;20152;-77
2022/10/01 06:34:57;;;;;;;1.15;0.70;;;;;;;;;;5095107;28;20135;-77
2022/10/01 06:37:24;;;;;;;2.47;1.05;;;;;;;;;;5095361;28;20127;-77
2022/10/01 06:39:50;;;;;;;2.45;0.75;;;;;;;;;;5094819;28;20524;-77
2022/10/01 06:42:16;;;;;;;3.20;0.88;;;;;;;;;;5095288;28;20048;-77
2022/10/01 06:44:42;;;;;;;3.13;0.80;;;;;;;;;;5094828;28;20528;-76
2022/10/01 06:47:09;;;;;;;4.30;0.95;;;;;;;;;;5095053;28;20044;-76
2022/10/01 06:49:35;;;;;;;1.05;0.75;;;;;;;;;;5094867;28;20560;-77
2022/10/01 06:54:46;;;;;;;4.78;1.05;;;;;;;;;;5094370;28;20123;-76
2022/10/01 06:57:12;;;;;;;3.63;1.05;;;;;;;;;;5094570;28;20123;-76
2022/10/01 06:59:38;;;;;;;1.75;1.23;;;;;;;;;;5094427;28;20048;-76
2022/10/01 07:02:04;;;;;;;6.80;4.78;;;;;;;;;;5094813;28;20036;-76
2022/10/01 07:04:30;;;;;;;3.25;1.00;;;;;;;;;;5094780;28;20032;-76
2022/10/01 07:06:57;;;;;;;2.03;0.82;;;;;;;;;;5093537;28;20036;-76
2022/10/01 07:09:24;;;;;;;2.10;0.93;;;;;;;;;;5093361;28;20048;-76
2022/10/01 07:11:51;;;;;;;3.50;0.90;;;;;;;;;;5094779;28;20078;-76
2022/10/01 07:14:19;;;;;;;2.92;1.30;;;;;;;;;;5094537;28;20088;-76
2022/10/01 07:16:45;;;;;;;2.35;0.70;;;;;;;;;;5095270;28;20040;-76
2022/10/01 07:19:11;;;;;;;5.03;1.00;;;;;;;;;;5094651;28;20505;-76
2022/10/01 07:21:37;;;;;;;2.58;0.63;;;;;;;;;;5094661;28;20036;-76
2022/10/01 07:24:03;;;;;;;2.35;0.98;;;;;;;;;;5094867;28;20058;-76
2022/10/01 07:26:29;;;;;;;3.55;1.98;;;;;;;;;;5094544;28;20105;-77
2022/10/01 07:28:55;;;;;;;5.10;1.10;;;;;;;;;;5094185;28;20090;-76
2022/10/01 07:31:23;;;;;;;3.75;1.17;;;;;;;;;;5094295;28;20078;-78
2022/10/01 07:33:49;;;;;;;2.60;1.30;;;;;;;;;;5094583;28;20032;-81
2022/10/01 07:36:15;;;;;;;8.27;2.05;;;;;;;;;;5094012;28;20044;-82
2022/10/01 07:38:42;;;;;;;3.42;1.10;;;;;;;;;;5094247;28;20498;-79
2022/10/01 07:41:09;;;;;;;2.80;0.90;;;;;;;;;;5093912;28;20036;-80
2022/10/01 07:43:35;;;;;;;4.32;1.17;;;;;;;;;;5094389;28;20032;-81
2022/10/01 07:46:04;;;;;;;3.80;1.08;;;;;;;;;;5094159;28;20044;-76
2022/10/01 07:48:30;;;;;;;3.35;1.08;;;;;;;;;;5094390;28;20048;-79
2022/10/01 07:50:56;;;;;;;4.20;1.25;;;;;;;;;;5094075;28;20036;-79
2022/10/01 07:53:24;;;;;;;5.13;1.00;;;;;;;;;;5094137;28;20059;-79
2022/10/01 07:55:50;;;;;;;4.55;1.15;;;;;;;;;;5093892;28;20061;-78
2022/10/01 07:58:17;;;;;;;6.25;2.60;;;;;;;;;;5093814;28;20119;-79
2022/10/01 08:00:43;;;;;;;2.67;1.35;;;;;;;;;;5092716;28;20094;-78
2022/10/01 08:03:13;;;;;;;6.45;4.15;;;;;;;;;;5094148;28;20541;-79
2022/10/01 08:05:40;;;;;;;3.63;0.90;;;;;;;;;;5097185;28;20546;-79
2022/10/01 08:08:08;;;;;;;2.58;0.93;;;;;;;;;;5097137;28;20066;-79
2022/10/01 08:10:36;;;;;;;2.78;0.65;;;;;;;;;;5097517;28;20039;-79
2022/10/01 08:13:07;;;;;;;2.55;1.00;;;;;;;;;;5097307;28;20081;-78
2022/10/01 08:15:33;;;;;;;4.88;1.17;;;;;;;;;;5102394;28;20042;-78
2022/10/01 08:18:02;;;;;;;3.05;0.90;;;;;;;;;;5105042;28;20066;-80
2022/10/01 08:20:29;;;;;;;2.95;1.27;;;;;;;;;;5108221;28;20080;-79
2022/10/01 08:23:00;;;;;;;3.88;1.17;;;;;;;;;;5105494;28;20525;-79
2022/10/01 08:25:26;;;;;;;5.32;1.10;;;;;;;;;;5100250;28;20093;-80
2022/10/01 08:27:53;;;;;;;3.38;1.30;;;;;;;;;;5107034;28;21363;-80
2022/10/01 08:30:19;;;;;;;3.25;0.80;;;;;;;;;;5109581;28;20043;-80
2022/10/01 08:32:45;;;;;;;3.97;1.10;;;;;;;;;;5110939;28;20051;-79
2022/10/01 08:35:11;;;;;;;2.30;0.65;;;;;;;;;;5110349;28;20035;-80
2022/10/01 08:37:37;;;;;;;4.28;1.08;;;;;;;;;;5112186;28;20505;-79
2022/10/01 08:40:03;;;;;;;3.90;1.20;;;;;;;;;;5116839;28;20032;-78
2022/10/01 08:42:36;;;;;;;3.08;1.25;;;;;;;;;;5111901;28;20048;-76
2022/10/01 08:45:05;;;;;;;4.13;1.50;;;;;;;;;;5113871;28;20031;-78
2022/10/01 08:47:35;;;;;;;6.45;2.10;;;;;;;;;;5114195;28;20035;-78
2022/10/01 08:50:18;;;;;;;6.45;2.08;;;;;;;;;;5109357;28;20052;-84
2022/10/01 08:52:56;;;;;;;3.05;1.67;;;;;;;;;;5111385;28;20035;-83
2022/10/01 08:55:24;;;;;;;3.10;0.98;;;;;;;;;;5111029;28;20035;-77
2022/10/01 08:57:55;;;;;;;3.63;1.13;;;;;;;;;;5116163;28;20523;-80
2022/10/01 09:00:22;;;;;;;4.45;1.25;;;;;;;;;;5115801;28;20043;-76
2022/10/01 09:02:49;;;;;;;2.45;0.80;;;;;;;;;;5115630;28;20073;-76
2022/10/01 09:05:43;;;;;;;4.72;0.90;;;;;;;;;;5112100;28;20448;-76
2022/10/01 09:08:19;;;;;;;4.13;0.82;;;;;;;;;;5106166;28;20104;-77
2022/10/01 09:10:52;;;;;;;3.88;1.33;;;;;;;;;;5097143;28;20044;-76
2022/10/01 09:13:18;;;;;;;2.53;0.88;;;;;;;;;;5114336;28;20039;-81
2022/10/01 09:15:44;;;;;;;3.88;0.88;;;;;;;;;;5115178;28;20383;-77
2022/10/01 09:18:29;;;;;;;3.70;0.82;;;;;;;;;;5108617;28;20032;-76
2022/10/01 09:20:57;;;;;;;4.55;0.90;;;;;;;;;;5112385;28;20130;-76
2022/10/01 09:23:27;;;;;;;6.97;1.40;;;;;;;;;;5110746;28;20073;-76
2022/10/01 09:25:53;;;;;;;2.63;0.70;;;;;;;;;;5116674;28;20044;-76
2022/10/01 09:28:21;;;;;;;4.07;0.95;;;;;;;;;;5116080;28;20054;-76
2022/10/01 09:30:55;;;;;;;4.20;0.75;;;;;;;;;;5115290;28;20036;-76
2022/10/01 09:33:23;;;;;;;3.53;1.02;;;;;;;;;;5115781;27;20047;-76
2022/10/01 09:36:01;;;;;;;2.85;1.23;;;;;;;;;;5113297;28;20036;-76
2022/10/01 09:38:27;;;;;;;4.95;1.58;;;;;;;;;;5115093;28;20088;-76
2022/10/01 09:40:57;;;;;;;5.47;1.70;;;;;;;;;;5115397;28;20066;-75
2022/10/01 09:43:26;;;;;;;4.67;0.97;;;;;;;;;;5115134;28;20055;-80
2022/10/01 09:45:52;;;;;;;5.10;1.70;;;;;;;;;;5115382;28;20571;-78
2022/10/01 09:48:45;;;;;;;5.15;1.67;;;;;;;;;;5114964;28;20040;-79
2022/10/01 09:51:13;;;;;;;6.75;1.17;;;;;;;;;;5106085;28;20039;-77
2022/10/01 09:53:48;;;;;;;6.10;1.10;;;;;;;;;;5100942;28;20044;-75
2022/10/01 09:56:18;;;;;;;6.20;1.23;;;;;;;;;;5109861;28;20043;-76
2022/10/01 09:58:47;;;;;;;8.93;3.45;;;;;;;;;;5114292;28;20039;-77
2022/10/01 10:01:26;;;;;;;3.35;1.27;;;;;;;;;;5114175;28;20051;-77
2022/10/01 10:03:53;;;;;;;4.68;1.27;;;;;;;;;;5114320;28;20032;-77
2022/10/01 10:06:26;;;;;;;5.57;1.10;;;;;;;;;;5112583;28;20035;-76
2022/10/01 10:08:54;;;;;;;9.00;2.60;;;;;;;;;;5114566;28;20037;-76
2022/10/01 10:11:22;;;;;;;4.35;1.10;;;;;;;;;;5114176;28;20043;-76
2022/10/01 10:14:04;;;;;;;2.63;1.10;;;;;;;;;;5114917;28;20122;-76
2022/10/01 10:16:33;;;;;;;4.15;1.00;;;;;;;;;;5113595;28;20036;-76
2022/10/01 10:19:15;;;;;;;3.78;0.90;;;;;;;;;;5103194;28;20513;-78
2022/10/01 10:21:50;;;;;;;3.92;1.08;;;;;;;;;;5112038;28;20052;-77
2022/10/01 10:24:23;;;;;;;5.97;2.47;;;;;;;;;;5099598;28;20092;-77
2022/10/01 10:26:57;;;;;;;1.38;0.60;;;;;;;;;;5101151;28;20062;-76
2022/10/01 10:29:34;;;;;;;4.93;0.90;;;;;;;;;;5115164;28;20047;-76
2022/10/01 10:32:06;;;;;;;4.05;1.02;;;;;;;;;;5114285;28;20490;-76
2022/10/01 10:34:34;;;;;;;5.82;2.20;;;;;;;;;;5105121;28;20077;-76
2022/10/01 10:37:04;;;;;;;3.53;0.95;;;;;;;;;;5113145;28;20046;-76
2022/10/01 10:39:39;;;;;;;2.92;0.80;;;;;;;;;;5114205;28;20077;-76
2022/10/01 10:42:07;;;;;;;2.92;0.90;;;;;;;;;;5114123;28;20043;-75
2022/10/01 10:44:37;;;;;;;4.45;0.98;;;;;;;;;;5112610;28;20126;-75
2022/10/01 10:47:08;;;;;;;5.85;1.48;;;;;;;;;;5113981;28;20042;-75
2022/10/01 10:49:39;;;;;;;3.53;0.88;;;;;;;;;;5113249;28;20047;-76
2022/10/01 10:52:17;;;;;;;4.25;0.70;;;;;;;;;;5113598;28;20051;-75
2022/10/01 10:54:46;;;;;;;8.10;3.33;;;;;;;;;;5110555;28;20047;-76
2022/10/01 10:57:12;;;;;;;3.15;1.00;;;;;;;;;;5114937;28;20072;-77
2022/10/01 10:59:38;;;;;;;6.70;1.20;;;;;;;;;;5115035;28;20063;-74
2022/10/01 11:02:05;;;;;;;2.05;0.80;;;;;;;;;;5115235;28;20048;-74
2022/10/01 11:04:34;;;;;;;4.20;1.05;;;;;;;;;;5114847;28;20055;-74
2022/10/01 11:07:00;;;;;;;6.13;0.93;;;;;;;;;;5115459;28;20050;-75
2022/10/01 11:09:30;;;;;;;10.30;6.28;;;;;;;;;;5114817;28;20063;-75
2022/10/01 11:12:06;;;;;;;8.32;4.78;;;;;;;;;;5114802;28;20047;-75
2022/10/01 11:14:33;;;;;;;2.25;1.38;;;;;;;;;;5114859;28;20038;-75
2022/10/01 11:17:05;;;;;;;11.27;6.05;;;;;;;;;;5114581;28;20043;-75
2022/10/01 11:19:31;;;;;;;3.78;2.47;;;;;;;;;;5115033;28;20040;-74
2022/10/01 11:22:15;;;;;;;3.65;1.30;;;;;;;;;;5115134;28;20118;-74
2022/10/01 11:25:00;;;;;;;5.00;1.25;;;;;;;;;;5114694;28;20046;-75
2022/10/01 11:27:26;;;;;;;3.05;1.05;;;;;;;;;;5114648;28;20059;-74
2022/10/01 11:29:52;;;;;;;7.85;3.13;;;;;;;;;;5114527;28;20071;-74
2022/10/01 11:32:18;;;;;;;5.00;1.13;;;;;;;;;;5114429;28;20444;-73
2022/10/01 11:34:51;;;;;;;3.10;1.00;;;;;;;;;;5114332;28;20127;-74
2022/10/01 11:37:32;;;;;;;3.13;1.10;;;;;;;;;;5113307;28;20474;-74
2022/10/01 11:40:02;;;;;;;1.77;1.00;;;;;;;;;;5118219;28;20035;-75
2022/10/01 11:42:34;;;;;;;2.38;1.30;;;;;;;;;;5118645;28;20112;-74
2022/10/01 11:45:21;;;;;;;2.85;0.90;;;;;;;;;;5118487;28;20078;-74
2022/10/01 11:47:50;;;;;;;6.00;2.92;;;;;;;;;;5118581;28;20054;-74
2022/10/01 11:50:34;;;;;;;12.48;6.47;;;;;;;;;;5117926;28;20561;-74
2022/10/01 11:53:04;;;;;;;5.13;3.47;;;;;;;;;;5118763;28;20494;-74
2022/10/01 12:01:24;;;;;;;4.03;1.10;;;;;;;;;;5117619;28;20035;-75
2022/10/01 12:03:53;;;;;;;2.85;1.00;;;;;;;;;;5118335;28;20055;-75
2022/10/01 12:06:32;;;;;;;1.35;0.70;;;;;;;;;;5118574;28;20470;-74
2022/10/01 12:09:21;;;;;;;5.07;1.20;;;;;;;;;;5117886;28;20170;-74
2022/10/01 12:11:51;;;;;;;2.85;0.90;;;;;;;;;;5079437;28;20051;-74
2022/10/01 12:14:20;;;;;;;7.60;1.48;;;;;;;;;;5117691;28;20031;-76
2022/10/01 12:16:56;;;;;;;1.17;0.70;;;;;;;;;;5117552;28;20524;-75
2022/10/01 12:19:31;;;;;;;1.63;0.70;;;;;;;;;;5117823;28;20089;-76
2022/10/01 12:21:59;;;;;;;1.90;0.75;;;;;;;;;;5117964;28;20043;-76
2022/10/01 12:24:28;;;;;;;1.98;0.80;;;;;;;;;;5116382;28;20040;-76
2022/10/01 12:26:54;;;;;;;2.30;0.90;;;;;;;;;;5117376;28;20051;-76
2022/10/01 12:29:20;;;;;;;5.50;0.80;;;;;;;;;;5117153;28;20082;-76
2022/10/01 12:31:49;;;;;;;1.48;0.80;;;;;;;;;;5115449;28;20052;-75
2022/10/01 12:34:23;;;;;;;3.15;0.80;;;;;;;;;;5115451;28;20575;-76
2022/10/01 12:37:09;;;;;;;1.65;0.77;;;;;;;;;;5093532;28;20040;-77
2022/10/01 12:39:59;;;;;;;4.97;0.80;;;;;;;;;;5095924;28;20044;-76
2022/10/01 12:42:38;;;;;;;2.83;1.13;;;;;;;;;;5096104;28;20040;-76
2022/10/01 12:45:27;;;;;;;1.25;0.88;;;;;;;;;;5095908;28;20028;-76
2022/10/01 12:47:56;;;;;;;2.20;1.00;;;;;;;;;;5084955;28;20036;-76
2022/10/01 12:50:43;;;;;;;1.15;1.02;;;;;;;;;;5095425;28;20048;-76
2022/10/01 12:53:24;;;;;;;2.03;0.77;;;;;;;;;;5095478;28;20039;-76
2022/10/01 12:55:51;;;;;;;4.95;0.80;;;;;;;;;;5094743;28;20078;-76
2022/10/01 12:58:17;;;;;;;4.57;1.90;;;;;;;;;;5095227;28;20169;-76
2022/10/01 13:00:52;;;;;;;2.45;1.83;;;;;;;;;;5095174;28;20039;-76
2022/10/01 13:03:28;;;;;;;1.33;0.63;;;;;;;;;;5096215;28;20032;-76
2022/10/01 13:06:03;;;;;;;1.95;0.70;;;;;;;;;;5095866;28;20047;-76
2022/10/01 13:08:33;;;;;;;2.85;0.75;;;;;;;;;;5095040;28;20063;-72
2022/10/01 13:11:19;;;;;;;4.57;0.80;;;;;;;;;;5095805;28;20056;-72
2022/10/01 13:13:48;;;;;;;3.47;0.80;;;;;;;;;;5094623;28;20044;-71
2022/10/01 13:16:37;;;;;;;7.15;3.00;;;;;;;;;;5095405;28;20028;-72
2022/10/01 13:19:14;;;;;;;3.55;2.30;;;;;;;;;;5096403;28;20048;-74
2022/10/01 13:21:46;;;;;;;6.20;3.63;;;;;;;;;;5094857;28;20115;-75
2022/10/01 13:24:22;;;;;;;6.10;2.58;;;;;;;;;;5095978;28;20048;-74
2022/10/01 13:26:58;;;;;;;6.97;5.93;;;;;;;;;;5095971;28;20052;-75
2022/10/01 13:29:47;;;;;;;2.10;1.17;;;;;;;;;;5095777;28;20048;-75
2022/10/01 13:32:43;;;;;;;3.33;1.00;;;;;;;;;;5085307;28;20098;-75
2022/10/01 13:35:24;;;;;;;2.65;0.90;;;;;;;;;;5078877;28;20036;-74
2022/10/01 13:37:50;;;;;;;2.05;0.60;;;;;;;;;;5095586;28;20169;-74
2022/10/01 13:40:30;;;;;;;2.08;0.73;;;;;;;;;;5095818;28;20043;-73
2022/10/01 13:42:58;;;;;;;3.20;0.88;;;;;;;;;;5095812;28;20048;-73
2022/10/01 13:45:29;;;;;;;3.75;0.77;;;;;;;;;;5096079;28;20060;-73
2022/10/01 13:48:25;;;;;;;3.00;0.70;;;;;;;;;;5095656;28;20044;-73
2022/10/01 13:50:56;;;;;;;1.35;0.70;;;;;;;;;;5078162;28;20067;-73
2022/10/01 13:53:24;;;;;;;3.13;0.80;;;;;;;;;;5095323;28;20515;-73
2022/10/01 13:55:52;;;;;;;3.83;0.90;;;;;;;;;;5095143;28;20036;-73
2022/10/01 13:58:22;;;;;;;2.05;0.90;;;;;;;;;;5095200;28;20036;-74
2022/10/01 14:00:55;;;;;;;3.67;0.82;;;;;;;;;;5095399;28;20056;-74
2022/10/01 14:03:40;;;;;;;2.35;1.00;;;;;;;;;;5095085;28;20071;-74
2022/10/01 14:06:07;;;;;;;3.72;0.80;;;;;;;;;;5095625;28;20036;-74
2022/10/01 14:08:37;;;;;;;2.22;0.82;;;;;;;;;;5094979;28;20121;-73
2022/10/01 14:16:47;;;;;;;2.50;0.80;;;;;;;;;;5095230;28;20042;-74
2022/10/01 14:19:20;;;;;;;2.35;0.70;;;;;;;;;;5094826;28;20040;-74
2022/10/01 14:21:57;;;;;;;5.38;0.75;;;;;;;;;;5095059;28;20039;-74
2022/10/01 14:24:26;;;;;;;3.08;1.30;;;;;;;;;;5094772;28;20036;-74
2022/10/01 14:26:55;;;;;;;3.75;1.17;;;;;;;;;;5094734;28;20210;-74
2022/10/01 14:29:21;;;;;;;3.72;1.80;;;;;;;;;;5094686;28;20043;-75
2022/10/01 14:31:49;;;;;;;5.13;1.02;;;;;;;;;;5087405;28;20075;-75
2022/10/01 14:34:15;;;;;;;0.80;0.68;;;;;;;;;;5093327;28;20050;-74
2022/10/01 14:36:41;;;;;;;1.30;0.60;;;;;;;;;;5093890;28;20124;-73
2022/10/01 14:39:18;;;;;;;2.00;0.60;;;;;;;;;;5093797;28;20043;-73
2022/10/01 14:41:45;;;;;;;2.25;0.57;;;;;;;;;;5094341;28;20040;-73
2022/10/01 14:44:22;;;;;;;2.15;0.57;;;;;;;;;;5093737;28;20070;-73
2022/10/01 14:46:49;;;;;;;1.70;0.50;;;;;;;;;;5093554;28;20074;-73
2022/10/01 14:49:19;;;;;;;2.30;0.60;;;;;;;;;;5093665;28;20109;-73
2022/10/01 14:52:08;;;;;;;0.93;0.50;;;;;;;;;;5093931;28;20050;-73
2022/10/01 14:54:42;;;;;;;1.27;0.60;;;;;;;;;;5082749;28;20270;-74
2022/10/01 14:57:10;;;;;;;0.95;0.55;;;;;;;;;;5093776;28;20418;-73
2022/10/01 14:59:37;;;;;;;0.88;0.65;;;;;;;;;;5092342;28;20514;-72
2022/10/01 15:02:16;;;;;;;2.05;0.50;;;;;;;;;;5093745;28;20440;-71
2022/10/01 15:04:46;;;;;;;1.30;0.47;;;;;;;;;;5093823;28;20098;-72
2022/10/01 15:07:14;;;;;;;0.98;0.40;;;;;;;;;;5094278;28;20118;-72
2022/10/01 15:09:41;;;;;;;1.27;0.50;;;;;;;;;;5092064;28;20040;-72
2022/10/01 15:12:08;;;;;;;2.65;0.90;;;;;;;;;;5091718;28;20390;-72
2022/10/01 15:14:35;;;;;;;2.90;0.57;;;;;;;;;;5096133;28;20044;-73
2022/10/01 15:17:03;;;;;;;4.80;0.70;;;;;;;;;;5098656;28;20043;-73